createdAt,value
2019-01-16T00:00:33.061Z,5.87
2019-01-16T00:05:45.321Z,4.87
2019-01-16T00:09:58.725Z,7.33
2019-01-16T00:14:15.990Z,19.40
2019-01-16T00:20:35.121Z,6.43
2019-01-16T00:25:08.925Z,11.40
2019-01-16T00:29:22.515Z,7.07
2019-01-16T00:33:43.933Z,4.80
2019-01-16T00:37:56.326Z,8.40
2019-01-16T00:43:07.495Z,14.20
2019-01-16T00:47:24.934Z,7.30
2019-01-16T00:51:39.177Z,4.37
2019-01-16T00:55:52.527Z,4.80
2019-01-16T01:00:22.185Z,4.87
2019-01-16T01:05:33.233Z,6.07
2019-01-16T01:10:01.832Z,6.20
2019-01-16T01:14:24.362Z,4.63
2019-01-16T01:18:40.931Z,4.43
2019-01-16T01:22:52.938Z,4.27
2019-01-16T01:27:06.572Z,4.13
2019-01-16T01:31:24.969Z,3.77
2019-01-16T01:36:36.116Z,3.63
2019-01-16T01:42:53.877Z,7.60
2019-01-16T01:47:40.468Z,4.97
2019-01-16T01:51:53.921Z,4.93
2019-01-16T01:56:22.490Z,4.87
2019-01-16T02:00:37.872Z,6.23
2019-01-16T02:06:55.776Z,7.47
2019-01-16T02:11:13.151Z,5.73
2019-01-16T02:15:31.437Z,6.70
2019-01-16T02:19:43.794Z,5.37
2019-01-16T02:23:57.386Z,7.13
2019-01-16T02:28:25.938Z,5.77
2019-01-16T02:32:44.453Z,6.70
2019-01-16T02:37:12.018Z,8.17
2019-01-16T02:42:24.044Z,6.47
2019-01-16T02:46:38.273Z,8.10
2019-01-16T02:50:50.629Z,9.57
2019-01-16T02:55:04.237Z,9.90
2019-01-16T02:59:20.361Z,12.37
2019-01-16T03:03:33.620Z,13.80
2019-01-16T03:07:55.013Z,9.40
2019-01-16T03:12:08.629Z,9.03
2019-01-16T03:16:22.914Z,15.90
2019-01-16T03:20:38.290Z,13.00
2019-01-16T03:24:55.722Z,8.33
2019-01-16T03:29:20.123Z,10.70
2019-01-16T03:33:33.502Z,11.00
2019-01-16T03:38:17.180Z,10.40
2019-01-16T03:42:30.649Z,11.23
2019-01-16T03:46:46.077Z,10.37
2019-01-16T03:53:02.886Z,11.47
2019-01-16T03:57:48.603Z,9.47
2019-01-16T04:02:05.137Z,11.80
2019-01-16T04:06:21.531Z,10.23
2019-01-16T04:10:35.033Z,11.33
2019-01-16T04:14:48.373Z,14.23
2019-01-16T04:19:00.750Z,9.60
2019-01-16T04:23:14.365Z,9.07
2019-01-16T04:27:31.779Z,10.13
2019-01-16T04:33:49.682Z,10.70
2019-01-16T04:38:07.083Z,12.10
2019-01-16T04:42:19.565Z,10.80
2019-01-16T04:46:43.831Z,10.03
2019-01-16T04:50:59.120Z,10.27
2019-01-16T04:55:12.343Z,11.57
2019-01-16T04:59:25.949Z,13.30
2019-01-16T05:03:59.477Z,9.83
2019-01-16T05:08:15.913Z,12.93
2019-01-16T05:12:43.403Z,9.60
2019-01-16T05:17:03.735Z,9.73
2019-01-16T05:21:19.008Z,10.33
2019-01-16T05:25:32.288Z,9.40
2019-01-16T05:29:45.949Z,9.70
2019-01-16T05:36:02.116Z,13.73
2019-01-16T05:40:46.005Z,13.40
2019-01-16T05:45:29.637Z,10.27
2019-01-16T05:49:46.558Z,10.90
2019-01-16T05:54:30.947Z,13.60
2019-01-16T05:58:49.046Z,15.07
2019-01-16T06:03:01.457Z,20.53
2019-01-16T06:07:22.964Z,15.50
2019-01-16T06:11:41.443Z,15.23
2019-01-16T06:16:01.746Z,18.20
2019-01-16T06:20:15.392Z,21.53
2019-01-16T06:24:38.966Z,17.97
2019-01-16T06:28:52.480Z,17.00
2019-01-16T06:33:04.894Z,16.87
2019-01-16T06:37:19.354Z,18.70
2019-01-16T06:41:50.057Z,16.03
2019-01-16T06:46:05.225Z,18.20
2019-01-16T06:50:18.472Z,15.30
2019-01-16T06:54:31.870Z,16.80
2019-01-16T06:59:44.621Z,20.50
2019-01-16T07:03:58.085Z,16.00
2019-01-16T07:08:10.445Z,18.00
2019-01-16T07:12:26.890Z,17.77
2019-01-16T07:16:40.490Z,27.77
2019-01-16T07:20:54.073Z,18.47
2019-01-16T07:27:10.130Z,17.03
2019-01-16T07:31:23.383Z,20.17
2019-01-16T07:37:39.319Z,28.83
2019-01-16T07:42:01.657Z,15.20
2019-01-16T07:46:21.022Z,15.03
2019-01-16T07:50:34.561Z,17.43
2019-01-16T07:56:51.565Z,13.07
2019-01-16T08:01:04.693Z,13.33
2019-01-16T08:05:23.121Z,13.30
2019-01-16T08:09:44.656Z,17.50
2019-01-16T08:13:57.012Z,18.90
2019-01-16T08:18:09.374Z,14.27
2019-01-16T08:22:22.629Z,22.57
2019-01-16T08:26:47.771Z,38.17
2019-01-16T08:31:02.096Z,22.03
2019-01-16T08:35:20.689Z,15.47
2019-01-16T08:39:33.049Z,15.53
2019-01-16T08:43:46.669Z,18.80
2019-01-16T08:48:04.133Z,16.17
2019-01-16T08:52:21.448Z,10.63
2019-01-16T08:57:07.035Z,13.70
2019-01-16T09:01:20.533Z,21.90
2019-01-16T09:05:34.111Z,13.63
2019-01-16T09:09:48.517Z,33.87
2019-01-16T09:14:04.898Z,15.03
2019-01-16T09:18:18.021Z,21.70
2019-01-16T09:22:30.398Z,14.17
2019-01-16T09:26:43.550Z,14.23
2019-01-16T09:30:55.905Z,19.73
2019-01-16T09:35:09.762Z,14.73
2019-01-16T09:39:27.191Z,13.90
2019-01-16T09:43:43.498Z,11.93
2019-01-16T09:52:30.494Z,18.70
2019-01-16T09:57:44.337Z,15.10
2019-01-16T10:01:59.798Z,15.07
2019-01-16T10:06:13.946Z,15.93
2019-01-16T10:10:31.337Z,10.13
2019-01-16T10:14:59.990Z,13.80
2019-01-16T10:19:15.418Z,17.10
2019-01-16T10:23:28.833Z,31.23
2019-01-16T10:27:42.452Z,13.10
2019-01-16T10:31:56.061Z,60.47
2019-01-16T10:36:27.715Z,48.97
2019-01-16T10:40:43.139Z,18.13
2019-01-16T10:44:58.517Z,16.70
2019-01-16T10:49:15.993Z,14.80
2019-01-16T10:53:29.252Z,73.00
2019-01-16T10:57:44.668Z,43.10
2019-01-16T11:02:05.121Z,138.40
2019-01-16T11:07:16.118Z,121.80
2019-01-16T11:11:31.490Z,36.67
2019-01-16T11:15:45.117Z,23.97
2019-01-16T11:19:57.496Z,28.27
2019-01-16T11:24:10.977Z,13.37
2019-01-16T11:30:27.500Z,32.73
2019-01-16T11:34:41.010Z,10.93
2019-01-16T11:40:56.840Z,8.40
2019-01-16T11:45:14.250Z,8.77
2019-01-16T11:49:27.518Z,9.67
2019-01-16T11:55:43.592Z,10.37
2019-01-16T11:59:57.855Z,12.80
2019-01-16T12:04:10.240Z,7.80
2019-01-16T12:08:23.489Z,9.50
2019-01-16T12:12:35.966Z,11.00
2019-01-16T12:16:49.565Z,9.90
2019-01-16T12:21:03.139Z,7.40
2019-01-16T12:25:16.597Z,14.23
2019-01-16T12:29:29.973Z,8.20
2019-01-16T12:33:43.493Z,9.10
2019-01-16T12:38:03.672Z,11.33
2019-01-16T12:42:34.157Z,8.40
2019-01-16T12:47:01.612Z,8.40
2019-01-16T12:51:15.869Z,13.53
2019-01-16T12:55:35.341Z,8.00
2019-01-16T12:59:51.669Z,7.33
2019-01-16T13:04:04.938Z,10.80
2019-01-16T13:08:17.301Z,9.90
2019-01-16T13:12:35.544Z,7.70
2019-01-16T13:16:49.047Z,8.10
2019-01-16T13:21:03.190Z,7.47
2019-01-16T13:25:16.664Z,12.70
2019-01-16T13:29:45.229Z,6.20
2019-01-16T13:34:04.686Z,7.53
2019-01-16T13:38:19.047Z,8.37
2019-01-16T13:42:33.330Z,8.70
2019-01-16T13:46:50.640Z,6.70
2019-01-16T13:51:05.043Z,6.73
2019-01-16T13:55:18.597Z,9.60
2019-01-16T13:59:32.937Z,10.00
2019-01-16T14:04:16.751Z,10.77
2019-01-16T14:09:35.753Z,7.80
2019-01-16T14:13:51.191Z,8.30
2019-01-16T14:18:06.628Z,9.13
2019-01-16T14:22:20.188Z,11.27
2019-01-16T14:26:33.846Z,11.10
2019-01-16T14:31:03.324Z,7.07
2019-01-16T14:35:21.561Z,7.10
2019-01-16T14:39:34.821Z,11.63
2019-01-16T14:43:48.313Z,14.13
2019-01-16T14:48:03.631Z,15.37
2019-01-16T14:52:17.909Z,10.30
2019-01-16T14:56:43.291Z,11.47
2019-01-16T15:00:56.928Z,12.30
2019-01-16T15:05:13.789Z,14.47
2019-01-16T15:09:27.324Z,12.63
2019-01-16T15:13:41.772Z,14.80
2019-01-16T15:19:57.758Z,15.23
2019-01-16T15:24:16.179Z,13.17
2019-01-16T15:28:29.721Z,14.93
2019-01-16T15:32:43.401Z,6.80
2019-01-16T15:36:58.653Z,8.80
2019-01-16T15:41:15.068Z,8.83
2019-01-16T15:46:32.125Z,10.90
2019-01-16T15:52:51.673Z,9.33
2019-01-16T15:57:06.981Z,15.90
2019-01-16T16:02:18.056Z,12.47
2019-01-16T16:06:41.596Z,11.23
2019-01-16T16:10:55.253Z,15.00
2019-01-16T16:15:12.642Z,10.83
2019-01-16T16:19:26.196Z,11.37
2019-01-16T16:23:39.853Z,14.37
2019-01-16T16:27:55.228Z,10.03
2019-01-16T16:32:09.362Z,14.23
2019-01-16T16:36:21.724Z,13.67
2019-01-16T16:42:42.277Z,10.20
2019-01-16T16:47:00.776Z,9.50
2019-01-16T16:52:16.960Z,14.50
2019-01-16T16:57:00.606Z,9.77
2019-01-16T17:01:12.976Z,11.50
2019-01-16T17:05:41.425Z,13.50
2019-01-16T17:10:52.413Z,20.20
2019-01-16T17:17:10.730Z,17.63
2019-01-16T17:21:25.096Z,71.60
2019-01-16T17:25:56.593Z,73.27
2019-01-16T17:31:12.969Z,20.60
2019-01-16T17:36:24.232Z,51.37
2019-01-16T17:40:37.735Z,13.10
2019-01-16T17:44:51.350Z,30.60
2019-01-16T17:49:04.764Z,54.53
2019-01-16T17:54:15.892Z,15.77
2019-01-16T17:58:59.701Z,23.17
2019-01-16T18:03:17.077Z,11.03
2019-01-16T18:07:30.440Z,15.13
2019-01-16T18:12:50.778Z,11.97
2019-01-16T18:17:03.162Z,13.83
2019-01-16T18:21:25.538Z,16.17
2019-01-16T18:25:53.935Z,15.17
2019-01-16T18:30:07.495Z,11.27
2019-01-16T18:34:21.793Z,16.23
2019-01-16T18:38:36.226Z,12.10
2019-01-16T18:42:48.589Z,16.27
2019-01-16T18:47:02.933Z,11.40
2019-01-16T18:51:36.530Z,12.43
2019-01-16T18:55:59.830Z,13.57
2019-01-16T19:00:18.949Z,10.73
2019-01-16T19:04:32.502Z,9.60
2019-01-16T19:08:46.108Z,15.90
2019-01-16T19:12:59.784Z,13.90
2019-01-16T19:17:13.385Z,13.27
2019-01-16T19:21:26.648Z,10.30
2019-01-16T19:25:43.077Z,12.90
2019-01-16T19:30:27.641Z,11.30
2019-01-16T19:34:40.861Z,17.30
2019-01-16T19:38:56.301Z,15.43
2019-01-16T19:43:12.741Z,12.77
2019-01-16T19:47:31.173Z,11.20
2019-01-16T19:51:43.584Z,13.67
2019-01-16T19:55:59.038Z,15.97
2019-01-16T20:00:17.774Z,17.30
2019-01-16T20:04:33.228Z,13.00
2019-01-16T20:08:46.672Z,15.53
2019-01-16T20:13:00.050Z,16.73
2019-01-16T20:17:16.446Z,13.53
2019-01-16T20:21:30.729Z,15.53
2019-01-16T20:25:47.962Z,17.00
2019-01-16T20:30:00.330Z,21.30
2019-01-16T20:34:13.599Z,17.33
2019-01-16T20:39:29.857Z,21.20
2019-01-16T20:44:42.973Z,27.67
2019-01-16T20:49:01.444Z,21.13
2019-01-16T20:53:19.629Z,20.30
2019-01-16T20:57:45.184Z,23.40
2019-01-16T21:01:59.497Z,22.00
2019-01-16T21:06:11.861Z,18.70
2019-01-16T21:10:24.249Z,27.57
2019-01-16T21:14:37.508Z,21.70
2019-01-16T21:18:53.752Z,29.03
2019-01-16T21:23:07.270Z,23.37
2019-01-16T21:27:24.717Z,23.90
2019-01-16T21:31:41.094Z,24.57
2019-01-16T21:35:54.349Z,21.97
2019-01-16T21:40:12.832Z,19.03
2019-01-16T21:44:43.435Z,15.80
2019-01-16T21:49:56.306Z,17.50
2019-01-16T21:54:10.768Z,18.13
2019-01-16T21:58:27.069Z,23.77
2019-01-16T22:02:40.572Z,32.37
2019-01-16T22:06:57.807Z,32.00
2019-01-16T22:11:11.197Z,28.63
2019-01-16T22:17:28.752Z,18.43
2019-01-16T22:22:41.846Z,18.97
2019-01-16T22:28:57.197Z,37.83
2019-01-16T22:33:11.321Z,26.67
2019-01-16T22:37:23.696Z,21.80
2019-01-16T22:41:36.077Z,24.97
2019-01-16T22:45:53.420Z,21.10
2019-01-16T22:50:07.012Z,13.73
2019-01-16T22:54:34.369Z,20.27
2019-01-16T22:58:50.784Z,56.47
2019-01-16T23:03:06.039Z,15.20
2019-01-16T23:07:19.332Z,14.77
2019-01-16T23:13:35.493Z,15.70
2019-01-16T23:18:46.729Z,15.63
2019-01-16T23:22:59.117Z,15.83
2019-01-16T23:27:17.286Z,14.63
2019-01-16T23:31:32.426Z,14.37
2019-01-16T23:35:50.665Z,10.20
2019-01-16T23:40:08.040Z,11.93
2019-01-16T23:44:24.366Z,11.30
2019-01-16T23:48:37.597Z,10.10
2019-01-16T23:53:56.145Z,14.23
2019-01-16T23:58:06.161Z,7.30
